sensor_id;sensor_type;location;lat;lon;timestamp;temperature;humidity
6054;DHT22;3055;50.886;14.814;2022-10-22T00:02:17;10.70;1.00
6054;DHT22;3055;50.886;14.814;2022-10-22T00:04:45;10.70;1.00
6054;DHT22;3055;50.886;14.814;2022-10-22T00:07:12;10.70;1.00
6054;DHT22;3055;50.886;14.814;2022-10-22T00:09:40;10.70;1.00
6054;DHT22;3055;50.886;14.814;2022-10-22T00:12:07;10.70;1.00
6054;DHT22;3055;50.886;14.814;2022-10-22T00:14:34;10.70;1.00
6054;DHT22;3055;50.886;14.814;2022-10-22T00:17:01;10.70;1.00
6054;DHT22;3055;50.886;14.814;2022-10-22T00:19:28;10.60;1.00
6054;DHT22;3055;50.886;14.814;2022-10-22T00:21:55;10.60;1.00
6054;DHT22;3055;50.886;14.814;2022-10-22T00:24:23;10.50;1.00
6054;DHT22;3055;50.886;14.814;2022-10-22T00:26:51;10.50;1.00
6054;DHT22;3055;50.886;14.814;2022-10-22T00:29:18;10.40;1.00
6054;DHT22;3055;50.886;14.814;2022-10-22T00:31:45;10.40;1.00
6054;DHT22;3055;50.886;14.814;2022-10-22T00:34:14;10.40;1.00
6054;DHT22;3055;50.886;14.814;2022-10-22T00:36:41;10.30;1.00
6054;DHT22;3055;50.886;14.814;2022-10-22T00:39:08;10.30;1.00
6054;DHT22;3055;50.886;14.814;2022-10-22T00:41:35;10.30;1.00
6054;DHT22;3055;50.886;14.814;2022-10-22T00:44:05;10.20;1.00
6054;DHT22;3055;50.886;14.814;2022-10-22T00:46:32;10.20;1.00
6054;DHT22;3055;50.886;14.814;2022-10-22T00:49:01;10.20;1.00
6054;DHT22;3055;50.886;14.814;2022-10-22T00:51:31;10.20;1.00
6054;DHT22;3055;50.886;14.814;2022-10-22T00:54:02;10.20;1.00
6054;DHT22;3055;50.886;14.814;2022-10-22T00:56:30;10.20;1.00
6054;DHT22;3055;50.886;14.814;2022-10-22T00:58:59;10.20;1.00
6054;DHT22;3055;50.886;14.814;2022-10-22T01:01:29;10.30;1.00
6054;DHT22;3055;50.886;14.814;2022-10-22T01:03:57;10.30;1.00
6054;DHT22;3055;50.886;14.814;2022-10-22T01:06:26;10.30;1.00
6054;DHT22;3055;50.886;14.814;2022-10-22T01:09:04;10.20;1.00
6054;DHT22;3055;50.886;14.814;2022-10-22T01:11:41;10.20;1.00
6054;DHT22;3055;50.886;14.814;2022-10-22T01:14:17;10.20;1.00
6054;DHT22;3055;50.886;14.814;2022-10-22T01:16:56;10.20;1.00
6054;DHT22;3055;50.886;14.814;2022-10-22T01:19:37;10.20;1.00
6054;DHT22;3055;50.886;14.814;2022-10-22T01:22:10;10.30;1.00
6054;DHT22;3055;50.886;14.814;2022-10-22T01:24:52;10.30;1.00
6054;DHT22;3055;50.886;14.814;2022-10-22T01:27:41;10.40;1.00
6054;DHT22;3055;50.886;14.814;2022-10-22T01:30:12;10.40;1.00
6054;DHT22;3055;50.886;14.814;2022-10-22T01:32:43;10.40;1.00
6054;DHT22;3055;50.886;14.814;2022-10-22T01:35:14;10.40;1.00
6054;DHT22;3055;50.886;14.814;2022-10-22T01:37:44;10.40;1.00
6054;DHT22;3055;50.886;14.814;2022-10-22T01:40:14;10.50;1.00
6054;DHT22;3055;50.886;14.814;2022-10-22T01:42:41;10.40;1.00
6054;DHT22;3055;50.886;14.814;2022-10-22T01:45:12;10.50;1.00
6054;DHT22;3055;50.886;14.814;2022-10-22T01:47:46;10.50;1.00
6054;DHT22;3055;50.886;14.814;2022-10-22T01:50:27;10.50;1.00
6054;DHT22;3055;50.886;14.814;2022-10-22T01:53:20;10.50;1.00
6054;DHT22;3055;50.886;14.814;2022-10-22T01:55:58;10.50;1.00
6054;DHT22;3055;50.886;14.814;2022-10-22T01:58:36;10.50;1.00
6054;DHT22;3055;50.886;14.814;2022-10-22T02:01:12;10.60;1.00
6054;DHT22;3055;50.886;14.814;2022-10-22T02:03:44;10.60;1.00
6054;DHT22;3055;50.886;14.814;2022-10-22T02:06:16;10.60;1.00
6054;DHT22;3055;50.886;14.814;2022-10-22T02:08:45;10.60;1.00
6054;DHT22;3055;50.886;14.814;2022-10-22T02:11:14;10.60;1.00
6054;DHT22;3055;50.886;14.814;2022-10-22T02:13:43;10.60;1.00
6054;DHT22;3055;50.886;14.814;2022-10-22T02:16:16;10.60;1.00
6054;DHT22;3055;50.886;14.814;2022-10-22T02:18:45;10.60;1.00
6054;DHT22;3055;50.886;14.814;2022-10-22T02:21:15;10.60;1.00
6054;DHT22;3055;50.886;14.814;2022-10-22T02:23:42;10.60;1.00
6054;DHT22;3055;50.886;14.814;2022-10-22T02:26:15;10.50;1.00
6054;DHT22;3055;50.886;14.814;2022-10-22T02:28:51;10.60;1.00
6054;DHT22;3055;50.886;14.814;2022-10-22T02:31:23;10.60;1.00
6054;DHT22;3055;50.886;14.814;2022-10-22T02:33:54;10.60;1.00
6054;DHT22;3055;50.886;14.814;2022-10-22T02:36:23;10.60;1.00
6054;DHT22;3055;50.886;14.814;2022-10-22T02:38:51;10.60;1.00
6054;DHT22;3055;50.886;14.814;2022-10-22T02:41:18;10.60;1.00
6054;DHT22;3055;50.886;14.814;2022-10-22T02:43:49;10.60;1.00
6054;DHT22;3055;50.886;14.814;2022-10-22T02:46:16;10.60;1.00
6054;DHT22;3055;50.886;14.814;2022-10-22T02:48:44;10.60;1.00
6054;DHT22;3055;50.886;14.814;2022-10-22T02:51:12;10.50;1.00
6054;DHT22;3055;50.886;14.814;2022-10-22T02:53:39;10.60;1.00
6054;DHT22;3055;50.886;14.814;2022-10-22T02:56:06;10.50;1.00
6054;DHT22;3055;50.886;14.814;2022-10-22T02:58:33;10.60;1.00
6054;DHT22;3055;50.886;14.814;2022-10-22T03:01:00;10.60;1.00
6054;DHT22;3055;50.886;14.814;2022-10-22T03:03:27;10.60;1.00
6054;DHT22;3055;50.886;14.814;2022-10-22T03:05:55;10.60;1.00
6054;DHT22;3055;50.886;14.814;2022-10-22T03:08:22;10.60;1.00
6054;DHT22;3055;50.886;14.814;2022-10-22T03:10:49;10.70;1.00
6054;DHT22;3055;50.886;14.814;2022-10-22T03:13:15;10.60;1.00
6054;DHT22;3055;50.886;14.814;2022-10-22T03:15:42;10.60;1.00
6054;DHT22;3055;50.886;14.814;2022-10-22T03:18:09;10.60;1.00
6054;DHT22;3055;50.886;14.814;2022-10-22T03:20:36;10.60;1.00
6054;DHT22;3055;50.886;14.814;2022-10-22T03:23:04;10.60;1.00
6054;DHT22;3055;50.886;14.814;2022-10-22T03:25:32;10.50;1.00
6054;DHT22;3055;50.886;14.814;2022-10-22T03:28:02;10.50;1.00
6054;DHT22;3055;50.886;14.814;2022-10-22T03:30:29;10.50;1.00
6054;DHT22;3055;50.886;14.814;2022-10-22T03:32:56;10.50;1.00
6054;DHT22;3055;50.886;14.814;2022-10-22T03:35:23;10.60;1.00
6054;DHT22;3055;50.886;14.814;2022-10-22T03:37:50;10.60;1.00
6054;DHT22;3055;50.886;14.814;2022-10-22T03:40:19;10.70;1.00
6054;DHT22;3055;50.886;14.814;2022-10-22T03:42:46;10.70;1.00
6054;DHT22;3055;50.886;14.814;2022-10-22T03:45:13;10.70;1.00
6054;DHT22;3055;50.886;14.814;2022-10-22T03:47:40;10.70;1.00
6054;DHT22;3055;50.886;14.814;2022-10-22T03:50:08;10.70;1.00
6054;DHT22;3055;50.886;14.814;2022-10-22T03:52:35;10.70;1.00
6054;DHT22;3055;50.886;14.814;2022-10-22T03:55:04;10.70;1.00
6054;DHT22;3055;50.886;14.814;2022-10-22T03:57:32;10.70;1.00
6054;DHT22;3055;50.886;14.814;2022-10-22T03:59:59;10.70;1.00
6054;DHT22;3055;50.886;14.814;2022-10-22T04:02:26;10.70;1.00
6054;DHT22;3055;50.886;14.814;2022-10-22T04:04:53;10.70;1.00
6054;DHT22;3055;50.886;14.814;2022-10-22T04:07:20;10.70;1.00
6054;DHT22;3055;50.886;14.814;2022-10-22T04:09:47;10.70;1.00
6054;DHT22;3055;50.886;14.814;2022-10-22T04:12:13;10.80;1.00
6054;DHT22;3055;50.886;14.814;2022-10-22T04:14:42;10.80;1.00
6054;DHT22;3055;50.886;14.814;2022-10-22T04:17:09;10.80;1.00
6054;DHT22;3055;50.886;14.814;2022-10-22T04:19:36;10.80;1.00
6054;DHT22;3055;50.886;14.814;2022-10-22T04:22:03;10.80;99.90
6054;DHT22;3055;50.886;14.814;2022-10-22T04:24:30;10.80;1.00
6054;DHT22;3055;50.886;14.814;2022-10-22T04:26:57;10.80;1.00
6054;DHT22;3055;50.886;14.814;2022-10-22T04:29:25;10.80;1.00
6054;DHT22;3055;50.886;14.814;2022-10-22T04:31:53;10.70;1.00
6054;DHT22;3055;50.886;14.814;2022-10-22T04:34:20;10.80;1.00
6054;DHT22;3055;50.886;14.814;2022-10-22T04:36:47;10.80;99.90
6054;DHT22;3055;50.886;14.814;2022-10-22T04:39:14;10.90;99.90
6054;DHT22;3055;50.886;14.814;2022-10-22T04:41:41;10.80;99.90
6054;DHT22;3055;50.886;14.814;2022-10-22T04:44:08;10.80;99.90
6054;DHT22;3055;50.886;14.814;2022-10-22T04:46:35;10.80;99.90
6054;DHT22;3055;50.886;14.814;2022-10-22T04:49:03;10.80;99.90
6054;DHT22;3055;50.886;14.814;2022-10-22T04:51:31;10.80;99.90
6054;DHT22;3055;50.886;14.814;2022-10-22T04:53:58;10.80;99.90
6054;DHT22;3055;50.886;14.814;2022-10-22T04:56:26;10.80;99.90
6054;DHT22;3055;50.886;14.814;2022-10-22T04:58:55;10.80;99.90
6054;DHT22;3055;50.886;14.814;2022-10-22T05:01:23;10.80;99.90
6054;DHT22;3055;50.886;14.814;2022-10-22T05:03:52;10.80;99.90
6054;DHT22;3055;50.886;14.814;2022-10-22T05:06:21;10.90;99.90
6054;DHT22;3055;50.886;14.814;2022-10-22T05:08:51;10.80;99.90
6054;DHT22;3055;50.886;14.814;2022-10-22T05:11:20;10.80;99.90
6054;DHT22;3055;50.886;14.814;2022-10-22T05:13:47;10.90;99.90
6054;DHT22;3055;50.886;14.814;2022-10-22T05:16:14;10.80;99.90
6054;DHT22;3055;50.886;14.814;2022-10-22T05:18:42;10.80;99.90
6054;DHT22;3055;50.886;14.814;2022-10-22T05:21:11;10.90;99.90
6054;DHT22;3055;50.886;14.814;2022-10-22T05:23:40;10.80;99.90
6054;DHT22;3055;50.886;14.814;2022-10-22T05:26:09;10.80;99.90
6054;DHT22;3055;50.886;14.814;2022-10-22T05:28:37;10.90;99.90
6054;DHT22;3055;50.886;14.814;2022-10-22T05:31:05;10.80;99.90
6054;DHT22;3055;50.886;14.814;2022-10-22T05:33:33;10.80;99.90
6054;DHT22;3055;50.886;14.814;2022-10-22T05:36:00;10.80;99.90
6054;DHT22;3055;50.886;14.814;2022-10-22T05:38:27;10.80;99.90
6054;DHT22;3055;50.886;14.814;2022-10-22T05:41:03;10.80;99.90
6054;DHT22;3055;50.886;14.814;2022-10-22T05:43:31;10.80;99.90
6054;DHT22;3055;50.886;14.814;2022-10-22T05:46:01;10.80;99.90
6054;DHT22;3055;50.886;14.814;2022-10-22T05:48:28;10.80;99.90
6054;DHT22;3055;50.886;14.814;2022-10-22T05:50:55;10.90;99.90
6054;DHT22;3055;50.886;14.814;2022-10-22T05:53:22;10.80;99.90
6054;DHT22;3055;50.886;14.814;2022-10-22T05:55:49;10.80;99.90
6054;DHT22;3055;50.886;14.814;2022-10-22T05:58:18;10.80;99.90
6054;DHT22;3055;50.886;14.814;2022-10-22T06:00:44;10.90;99.90
6054;DHT22;3055;50.886;14.814;2022-10-22T06:03:11;10.90;99.90
6054;DHT22;3055;50.886;14.814;2022-10-22T06:05:38;10.90;99.90
6054;DHT22;3055;50.886;14.814;2022-10-22T06:08:05;10.90;99.90
6054;DHT22;3055;50.886;14.814;2022-10-22T06:10:32;10.80;99.90
6054;DHT22;3055;50.886;14.814;2022-10-22T06:12:59;10.90;99.90
6054;DHT22;3055;50.886;14.814;2022-10-22T06:15:29;10.80;99.90
6054;DHT22;3055;50.886;14.814;2022-10-22T06:17:56;10.90;1.00
6054;DHT22;3055;50.886;14.814;2022-10-22T06:20:22;10.90;1.00
6054;DHT22;3055;50.886;14.814;2022-10-22T06:22:49;10.80;1.00
6054;DHT22;3055;50.886;14.814;2022-10-22T06:25:16;10.80;1.00
6054;DHT22;3055;50.886;14.814;2022-10-22T06:27:47;10.80;1.00
6054;DHT22;3055;50.886;14.814;2022-10-22T06:30:14;10.80;1.00
6054;DHT22;3055;50.886;14.814;2022-10-22T06:32:42;10.70;1.00
6054;DHT22;3055;50.886;14.814;2022-10-22T06:35:09;10.60;6.50
6054;DHT22;3055;50.886;14.814;2022-10-22T06:37:36;10.60;12.70
6054;DHT22;3055;50.886;14.814;2022-10-22T06:40:03;10.60;29.20
6054;DHT22;3055;50.886;14.814;2022-10-22T06:42:30;10.50;41.40
6054;DHT22;3055;50.886;14.814;2022-10-22T06:44:57;10.50;57.00
6054;DHT22;3055;50.886;14.814;2022-10-22T06:47:24;10.40;89.80
6054;DHT22;3055;50.886;14.814;2022-10-22T06:49:52;10.40;99.90
6054;DHT22;3055;50.886;14.814;2022-10-22T06:52:19;10.40;99.90
6054;DHT22;3055;50.886;14.814;2022-10-22T06:54:46;10.30;99.90
6054;DHT22;3055;50.886;14.814;2022-10-22T06:57:13;10.30;99.90
6054;DHT22;3055;50.886;14.814;2022-10-22T06:59:40;10.30;99.90
6054;DHT22;3055;50.886;14.814;2022-10-22T07:02:08;10.30;99.90
6054;DHT22;3055;50.886;14.814;2022-10-22T07:04:35;10.40;99.90
6054;DHT22;3055;50.886;14.814;2022-10-22T07:07:03;10.40;99.90
6054;DHT22;3055;50.886;14.814;2022-10-22T07:09:30;10.30;99.90
6054;DHT22;3055;50.886;14.814;2022-10-22T07:11:57;10.30;99.90
6054;DHT22;3055;50.886;14.814;2022-10-22T07:14:23;10.40;99.90
6054;DHT22;3055;50.886;14.814;2022-10-22T07:16:50;10.40;99.90
6054;DHT22;3055;50.886;14.814;2022-10-22T07:19:17;10.40;99.90
6054;DHT22;3055;50.886;14.814;2022-10-22T07:21:44;10.30;99.90
6054;DHT22;3055;50.886;14.814;2022-10-22T07:24:12;10.30;99.90
6054;DHT22;3055;50.886;14.814;2022-10-22T07:26:39;10.30;99.90
6054;DHT22;3055;50.886;14.814;2022-10-22T07:29:06;10.30;99.90
6054;DHT22;3055;50.886;14.814;2022-10-22T07:31:34;10.30;99.90
6054;DHT22;3055;50.886;14.814;2022-10-22T07:34:01;10.40;99.90
6054;DHT22;3055;50.886;14.814;2022-10-22T07:36:28;10.40;99.90
6054;DHT22;3055;50.886;14.814;2022-10-22T07:38:56;10.40;99.90
6054;DHT22;3055;50.886;14.814;2022-10-22T07:41:26;10.40;99.90
6054;DHT22;3055;50.886;14.814;2022-10-22T07:43:53;10.40;99.90
6054;DHT22;3055;50.886;14.814;2022-10-22T07:46:21;10.40;99.90
6054;DHT22;3055;50.886;14.814;2022-10-22T07:48:48;10.40;99.90
6054;DHT22;3055;50.886;14.814;2022-10-22T07:51:15;10.40;99.90
6054;DHT22;3055;50.886;14.814;2022-10-22T07:53:42;10.40;99.90
6054;DHT22;3055;50.886;14.814;2022-10-22T07:56:09;10.30;99.90
6054;DHT22;3055;50.886;14.814;2022-10-22T07:58:38;10.30;99.90
6054;DHT22;3055;50.886;14.814;2022-10-22T08:01:06;10.30;99.90
6054;DHT22;3055;50.886;14.814;2022-10-22T08:03:33;10.20;99.90
6054;DHT22;3055;50.886;14.814;2022-10-22T08:06:00;10.20;99.90
6054;DHT22;3055;50.886;14.814;2022-10-22T08:08:27;10.20;99.90
6054;DHT22;3055;50.886;14.814;2022-10-22T08:10:56;10.20;99.90
6054;DHT22;3055;50.886;14.814;2022-10-22T08:13:24;10.20;99.90
6054;DHT22;3055;50.886;14.814;2022-10-22T08:15:53;10.20;99.90
6054;DHT22;3055;50.886;14.814;2022-10-22T08:18:20;10.20;99.90
6054;DHT22;3055;50.886;14.814;2022-10-22T08:20:47;10.20;99.90
6054;DHT22;3055;50.886;14.814;2022-10-22T08:23:14;10.20;99.90
6054;DHT22;3055;50.886;14.814;2022-10-22T08:25:40;10.10;99.90
6054;DHT22;3055;50.886;14.814;2022-10-22T08:28:07;10.10;99.90
6054;DHT22;3055;50.886;14.814;2022-10-22T08:30:35;10.10;99.90
6054;DHT22;3055;50.886;14.814;2022-10-22T08:33:05;10.20;99.90
6054;DHT22;3055;50.886;14.814;2022-10-22T08:35:32;10.20;99.90
6054;DHT22;3055;50.886;14.814;2022-10-22T08:37:59;10.20;99.90
6054;DHT22;3055;50.886;14.814;2022-10-22T08:40:30;10.20;99.90
6054;DHT22;3055;50.886;14.814;2022-10-22T08:43:36;10.30;99.90
6054;DHT22;3055;50.886;14.814;2022-10-22T08:46:16;10.40;99.90
6054;DHT22;3055;50.886;14.814;2022-10-22T08:48:48;10.40;99.90
6054;DHT22;3055;50.886;14.814;2022-10-22T08:51:17;10.50;99.90
6054;DHT22;3055;50.886;14.814;2022-10-22T08:54:03;10.60;99.90
6054;DHT22;3055;50.886;14.814;2022-10-22T08:56:34;10.70;99.90
6054;DHT22;3055;50.886;14.814;2022-10-22T08:59:05;10.70;99.90
6054;DHT22;3055;50.886;14.814;2022-10-22T09:01:37;10.80;99.90
6054;DHT22;3055;50.886;14.814;2022-10-22T09:04:11;10.80;99.90
6054;DHT22;3055;50.886;14.814;2022-10-22T09:06:40;10.90;99.90
6054;DHT22;3055;50.886;14.814;2022-10-22T09:09:11;11.00;99.90
6054;DHT22;3055;50.886;14.814;2022-10-22T09:11:43;11.10;99.90
6054;DHT22;3055;50.886;14.814;2022-10-22T09:14:13;11.20;99.90
6054;DHT22;3055;50.886;14.814;2022-10-22T09:17:10;11.30;99.90
6054;DHT22;3055;50.886;14.814;2022-10-22T09:19:53;11.30;99.90
6054;DHT22;3055;50.886;14.814;2022-10-22T09:22:31;11.30;99.90
6054;DHT22;3055;50.886;14.814;2022-10-22T09:25:09;11.30;99.90
6054;DHT22;3055;50.886;14.814;2022-10-22T09:27:39;11.30;99.90
6054;DHT22;3055;50.886;14.814;2022-10-22T09:30:12;11.30;99.90
6054;DHT22;3055;50.886;14.814;2022-10-22T09:32:40;11.30;99.90
6054;DHT22;3055;50.886;14.814;2022-10-22T09:35:11;11.40;99.90
6054;DHT22;3055;50.886;14.814;2022-10-22T09:37:47;11.50;99.90
6054;DHT22;3055;50.886;14.814;2022-10-22T09:40:14;11.50;99.90
6054;DHT22;3055;50.886;14.814;2022-10-22T09:42:42;11.60;99.90
6054;DHT22;3055;50.886;14.814;2022-10-22T09:45:17;11.60;99.90
6054;DHT22;3055;50.886;14.814;2022-10-22T09:47:45;11.60;99.90
6054;DHT22;3055;50.886;14.814;2022-10-22T09:50:23;11.70;99.90
6054;DHT22;3055;50.886;14.814;2022-10-22T09:52:58;11.70;99.90
6054;DHT22;3055;50.886;14.814;2022-10-22T09:55:25;11.90;99.90
6054;DHT22;3055;50.886;14.814;2022-10-22T09:57:53;12.00;99.90
6054;DHT22;3055;50.886;14.814;2022-10-22T10:00:21;12.20;99.90
6054;DHT22;3055;50.886;14.814;2022-10-22T10:02:53;12.30;99.90
6054;DHT22;3055;50.886;14.814;2022-10-22T10:05:27;12.50;99.90
6054;DHT22;3055;50.886;14.814;2022-10-22T10:07:54;12.60;99.90
6054;DHT22;3055;50.886;14.814;2022-10-22T10:10:30;12.80;99.90
6054;DHT22;3055;50.886;14.814;2022-10-22T10:13:08;12.90;99.90
6054;DHT22;3055;50.886;14.814;2022-10-22T10:15:39;13.00;99.90
6054;DHT22;3055;50.886;14.814;2022-10-22T10:18:16;13.00;97.10
6054;DHT22;3055;50.886;14.814;2022-10-22T10:20:54;13.00;96.40
6054;DHT22;3055;50.886;14.814;2022-10-22T10:23:26;13.10;97.30
6054;DHT22;3055;50.886;14.814;2022-10-22T10:26:00;13.10;86.00
6054;DHT22;3055;50.886;14.814;2022-10-22T10:28:38;13.10;95.30
6054;DHT22;3055;50.886;14.814;2022-10-22T10:31:18;13.10;94.70
6054;DHT22;3055;50.886;14.814;2022-10-22T10:33:52;13.20;99.90
6054;DHT22;3055;50.886;14.814;2022-10-22T10:36:33;13.30;99.90
6054;DHT22;3055;50.886;14.814;2022-10-22T10:39:06;13.40;93.00
6054;DHT22;3055;50.886;14.814;2022-10-22T10:41:44;13.40;68.70
6054;DHT22;3055;50.886;14.814;2022-10-22T10:44:33;13.40;92.60
6054;DHT22;3055;50.886;14.814;2022-10-22T10:47:11;13.50;77.10
6054;DHT22;3055;50.886;14.814;2022-10-22T10:49:40;13.60;71.40
6054;DHT22;3055;50.886;14.814;2022-10-22T10:52:15;13.60;47.00
6054;DHT22;3055;50.886;14.814;2022-10-22T10:54:50;13.60;75.50
6054;DHT22;3055;50.886;14.814;2022-10-22T10:57:32;13.70;91.90
6054;DHT22;3055;50.886;14.814;2022-10-22T11:00:06;13.90;25.10
6054;DHT22;3055;50.886;14.814;2022-10-22T11:02:55;13.80;15.80
6054;DHT22;3055;50.886;14.814;2022-10-22T11:05:29;13.80;21.40
6054;DHT22;3055;50.886;14.814;2022-10-22T11:08:03;13.90;35.20
6054;DHT22;3055;50.886;14.814;2022-10-22T11:10:34;14.10;24.70
6054;DHT22;3055;50.886;14.814;2022-10-22T11:13:07;14.10;1.90
6054;DHT22;3055;50.886;14.814;2022-10-22T11:15:39;14.20;3.80
6054;DHT22;3055;50.886;14.814;2022-10-22T11:18:15;14.20;8.90
6054;DHT22;3055;50.886;14.814;2022-10-22T11:20:49;14.20;14.30
6054;DHT22;3055;50.886;14.814;2022-10-22T11:23:24;14.00;22.30
6054;DHT22;3055;50.886;14.814;2022-10-22T11:25:53;13.90;50.70
6054;DHT22;3055;50.886;14.814;2022-10-22T11:28:24;13.80;47.90
6054;DHT22;3055;50.886;14.814;2022-10-22T11:30:56;13.70;53.80
6054;DHT22;3055;50.886;14.814;2022-10-22T11:33:27;13.70;58.90
6054;DHT22;3055;50.886;14.814;2022-10-22T11:35:55;13.70;96.30
6054;DHT22;3055;50.886;14.814;2022-10-22T11:38:25;13.70;88.50
6054;DHT22;3055;50.886;14.814;2022-10-22T11:40:56;13.70;58.10
6054;DHT22;3055;50.886;14.814;2022-10-22T11:43:29;13.60;51.80
6054;DHT22;3055;50.886;14.814;2022-10-22T11:46:02;13.40;41.90
6054;DHT22;3055;50.886;14.814;2022-10-22T11:48:36;13.30;61.80
6054;DHT22;3055;50.886;14.814;2022-10-22T11:51:03;13.20;70.30
6054;DHT22;3055;50.886;14.814;2022-10-22T11:53:56;13.20;99.90
6054;DHT22;3055;50.886;14.814;2022-10-22T11:56:25;13.30;96.90
6054;DHT22;3055;50.886;14.814;2022-10-22T11:58:53;13.30;99.90
6054;DHT22;3055;50.886;14.814;2022-10-22T12:01:26;13.40;97.10
6054;DHT22;3055;50.886;14.814;2022-10-22T12:04:16;13.40;91.50
6054;DHT22;3055;50.886;14.814;2022-10-22T12:06:58;13.50;81.80
6054;DHT22;3055;50.886;14.814;2022-10-22T12:09:28;13.50;45.20
6054;DHT22;3055;50.886;14.814;2022-10-22T12:12:03;13.60;55.20
6054;DHT22;3055;50.886;14.814;2022-10-22T12:14:49;13.80;83.40
6054;DHT22;3055;50.886;14.814;2022-10-22T12:17:17;13.90;24.80
6054;DHT22;3055;50.886;14.814;2022-10-22T12:19:46;14.00;36.00
6054;DHT22;3055;50.886;14.814;2022-10-22T12:22:17;14.00;38.30
6054;DHT22;3055;50.886;14.814;2022-10-22T12:24:47;13.90;12.10
6054;DHT22;3055;50.886;14.814;2022-10-22T12:27:17;13.90;38.70
6054;DHT22;3055;50.886;14.814;2022-10-22T12:29:44;14.00;44.60
6054;DHT22;3055;50.886;14.814;2022-10-22T12:32:13;14.00;36.90
6054;DHT22;3055;50.886;14.814;2022-10-22T12:34:45;14.00;1.00
6054;DHT22;3055;50.886;14.814;2022-10-22T12:37:13;14.10;2.00
6054;DHT22;3055;50.886;14.814;2022-10-22T12:39:40;14.10;15.50
6054;DHT22;3055;50.886;14.814;2022-10-22T12:42:12;14.20;6.00
6054;DHT22;3055;50.886;14.814;2022-10-22T12:44:39;14.30;18.60
6054;DHT22;3055;50.886;14.814;2022-10-22T12:47:07;14.30;1.00
6054;DHT22;3055;50.886;14.814;2022-10-22T12:49:42;14.40;1.00
6054;DHT22;3055;50.886;14.814;2022-10-22T12:52:14;14.50;1.00
6054;DHT22;3055;50.886;14.814;2022-10-22T12:54:44;14.60;1.00
6054;DHT22;3055;50.886;14.814;2022-10-22T12:57:15;14.80;1.00
6054;DHT22;3055;50.886;14.814;2022-10-22T12:59:43;14.90;1.00
6054;DHT22;3055;50.886;14.814;2022-10-22T13:02:18;15.00;1.00
6054;DHT22;3055;50.886;14.814;2022-10-22T13:05:14;15.10;1.00
6054;DHT22;3055;50.886;14.814;2022-10-22T13:07:45;15.20;1.00
6054;DHT22;3055;50.886;14.814;2022-10-22T13:10:19;15.40;1.00
6054;DHT22;3055;50.886;14.814;2022-10-22T13:12:51;15.60;1.00
6054;DHT22;3055;50.886;14.814;2022-10-22T13:15:29;15.40;1.00
6054;DHT22;3055;50.886;14.814;2022-10-22T13:18:01;15.30;1.00
6054;DHT22;3055;50.886;14.814;2022-10-22T13:20:29;15.10;1.00
6054;DHT22;3055;50.886;14.814;2022-10-22T13:22:57;15.00;1.00
6054;DHT22;3055;50.886;14.814;2022-10-22T13:25:27;14.90;1.00
6054;DHT22;3055;50.886;14.814;2022-10-22T13:27:57;14.70;1.00
6054;DHT22;3055;50.886;14.814;2022-10-22T13:30:28;14.50;1.00
6054;DHT22;3055;50.886;14.814;2022-10-22T13:32:57;14.50;1.00
6054;DHT22;3055;50.886;14.814;2022-10-22T13:35:27;14.40;1.00
6054;DHT22;3055;50.886;14.814;2022-10-22T13:37:54;14.30;16.30
6054;DHT22;3055;50.886;14.814;2022-10-22T13:40:21;14.20;23.20
6054;DHT22;3055;50.886;14.814;2022-10-22T13:42:48;14.10;42.90
6054;DHT22;3055;50.886;14.814;2022-10-22T13:45:16;14.00;48.90
6054;DHT22;3055;50.886;14.814;2022-10-22T13:47:47;13.80;59.60
6054;DHT22;3055;50.886;14.814;2022-10-22T13:50:16;13.80;89.90
6054;DHT22;3055;50.886;14.814;2022-10-22T13:52:45;13.70;99.90
6054;DHT22;3055;50.886;14.814;2022-10-22T13:55:16;13.60;99.90
6054;DHT22;3055;50.886;14.814;2022-10-22T13:57:43;13.50;99.90
6054;DHT22;3055;50.886;14.814;2022-10-22T14:00:13;13.50;99.90
6054;DHT22;3055;50.886;14.814;2022-10-22T14:02:42;13.50;99.90
6054;DHT22;3055;50.886;14.814;2022-10-22T14:05:10;13.40;99.90
6054;DHT22;3055;50.886;14.814;2022-10-22T14:07:37;13.40;99.90
6054;DHT22;3055;50.886;14.814;2022-10-22T14:10:16;13.40;99.90
6054;DHT22;3055;50.886;14.814;2022-10-22T14:12:43;13.40;99.90
6054;DHT22;3055;50.886;14.814;2022-10-22T14:15:12;13.30;99.90
6054;DHT22;3055;50.886;14.814;2022-10-22T14:17:41;13.30;99.90
6054;DHT22;3055;50.886;14.814;2022-10-22T14:20:14;13.20;99.90
6054;DHT22;3055;50.886;14.814;2022-10-22T14:22:44;13.20;99.90
6054;DHT22;3055;50.886;14.814;2022-10-22T14:25:13;13.30;99.90
6054;DHT22;3055;50.886;14.814;2022-10-22T14:27:40;13.50;99.90
6054;DHT22;3055;50.886;14.814;2022-10-22T14:30:08;13.70;99.90
6054;DHT22;3055;50.886;14.814;2022-10-22T14:32:35;13.90;99.90
6054;DHT22;3055;50.886;14.814;2022-10-22T14:35:04;14.00;99.90
6054;DHT22;3055;50.886;14.814;2022-10-22T14:37:31;14.30;71.90
6054;DHT22;3055;50.886;14.814;2022-10-22T14:39:58;14.40;65.40
6054;DHT22;3055;50.886;14.814;2022-10-22T14:42:27;14.50;42.50
6054;DHT22;3055;50.886;14.814;2022-10-22T14:44:54;14.60;23.70
6054;DHT22;3055;50.886;14.814;2022-10-22T14:47:21;14.80;14.00
6054;DHT22;3055;50.886;14.814;2022-10-22T14:49:48;14.90;1.00
6054;DHT22;3055;50.886;14.814;2022-10-22T14:52:16;15.10;1.00
6054;DHT22;3055;50.886;14.814;2022-10-22T14:54:44;15.30;1.00
6054;DHT22;3055;50.886;14.814;2022-10-22T14:57:13;15.40;1.00
6054;DHT22;3055;50.886;14.814;2022-10-22T14:59:41;15.50;1.00
6054;DHT22;3055;50.886;14.814;2022-10-22T15:02:09;15.80;1.00
6054;DHT22;3055;50.886;14.814;2022-10-22T15:04:37;16.00;1.00
6054;DHT22;3055;50.886;14.814;2022-10-22T15:07:06;16.30;99.90
6054;DHT22;3055;50.886;14.814;2022-10-22T15:09:34;16.60;99.90
6054;DHT22;3055;50.886;14.814;2022-10-22T15:12:01;16.70;1.00
6054;DHT22;3055;50.886;14.814;2022-10-22T15:14:28;16.60;99.90
6054;DHT22;3055;50.886;14.814;2022-10-22T15:16:55;16.50;1.00
6054;DHT22;3055;50.886;14.814;2022-10-22T15:19:22;16.30;1.00
6054;DHT22;3055;50.886;14.814;2022-10-22T15:21:49;15.90;1.00
6054;DHT22;3055;50.886;14.814;2022-10-22T15:24:16;15.60;99.90
6054;DHT22;3055;50.886;14.814;2022-10-22T15:26:44;15.50;99.90
6054;DHT22;3055;50.886;14.814;2022-10-22T15:29:11;15.40;99.90
6054;DHT22;3055;50.886;14.814;2022-10-22T15:31:46;15.30;99.90
6054;DHT22;3055;50.886;14.814;2022-10-22T15:34:17;15.20;1.00
6054;DHT22;3055;50.886;14.814;2022-10-22T15:36:45;15.00;1.00
6054;DHT22;3055;50.886;14.814;2022-10-22T15:39:11;14.40;99.90
6054;DHT22;3055;50.886;14.814;2022-10-22T15:41:39;14.00;99.90
6054;DHT22;3055;50.886;14.814;2022-10-22T15:44:07;13.50;1.00
6054;DHT22;3055;50.886;14.814;2022-10-22T15:46:37;13.10;1.00
6054;DHT22;3055;50.886;14.814;2022-10-22T15:49:03;12.90;5.20
6054;DHT22;3055;50.886;14.814;2022-10-22T15:51:30;12.70;59.50
6054;DHT22;3055;50.886;14.814;2022-10-22T15:53:58;12.40;99.90
6054;DHT22;3055;50.886;14.814;2022-10-22T15:56:27;12.10;99.90
6054;DHT22;3055;50.886;14.814;2022-10-22T15:58:55;11.90;99.90
6054;DHT22;3055;50.886;14.814;2022-10-22T16:01:24;11.80;99.90
6054;DHT22;3055;50.886;14.814;2022-10-22T16:03:52;11.80;99.90
6054;DHT22;3055;50.886;14.814;2022-10-22T16:06:25;11.70;99.90
6054;DHT22;3055;50.886;14.814;2022-10-22T16:08:52;11.70;99.90
6054;DHT22;3055;50.886;14.814;2022-10-22T16:11:19;11.60;99.90